sensor_id;sensor_type;location;lat;lon;timestamp;P1;durP1;ratioP1;P2;durP2;ratioP2
41643;SDS011;44236;48.098;11.582;2023-04-03T00:01:12;3.45;;;2.20;;
41643;SDS011;44236;48.098;11.582;2023-04-03T00:03:38;3.72;;;2.08;;
41643;SDS011;44236;48.098;11.582;2023-04-03T00:06:06;3.60;;;2.55;;
41643;SDS011;44236;48.098;11.582;2023-04-03T00:08:33;3.38;;;2.00;;
41643;SDS011;44236;48.098;11.582;2023-04-03T00:11:00;3.85;;;2.30;;
41643;SDS011;44236;48.098;11.582;2023-04-03T00:13:26;4.13;;;1.83;;
41643;SDS011;44236;48.098;11.582;2023-04-03T00:15:51;3.38;;;2.08;;
41643;SDS011;44236;48.098;11.582;2023-04-03T00:18:17;4.15;;;2.00;;
41643;SDS011;44236;48.098;11.582;2023-04-03T00:20:43;3.20;;;2.10;;
41643;SDS011;44236;48.098;11.582;2023-04-03T00:23:09;3.78;;;2.28;;
41643;SDS011;44236;48.098;11.582;2023-04-03T00:25:35;2.65;;;1.77;;
41643;SDS011;44236;48.098;11.582;2023-04-03T00:28:00;3.92;;;2.20;;
41643;SDS011;44236;48.098;11.582;2023-04-03T00:30:27;3.28;;;2.20;;
41643;SDS011;44236;48.098;11.582;2023-04-03T00:32:53;4.30;;;2.10;;
41643;SDS011;44236;48.098;11.582;2023-04-03T00:35:19;3.97;;;2.38;;
41643;SDS011;44236;48.098;11.582;2023-04-03T00:37:46;3.47;;;2.08;;
41643;SDS011;44236;48.098;11.582;2023-04-03T00:40:13;3.47;;;2.22;;
41643;SDS011;44236;48.098;11.582;2023-04-03T00:42:42;3.08;;;1.70;;
41643;SDS011;44236;48.098;11.582;2023-04-03T00:48:05;2.95;;;2.03;;
41643;SDS011;44236;48.098;11.582;2023-04-03T00:50:34;3.35;;;2.13;;
41643;SDS011;44236;48.098;11.582;2023-04-03T00:53:02;3.30;;;2.25;;
41643;SDS011;44236;48.098;11.582;2023-04-03T00:55:29;2.55;;;1.70;;
41643;SDS011;44236;48.098;11.582;2023-04-03T00:57:56;2.92;;;1.83;;
41643;SDS011;44236;48.098;11.582;2023-04-03T01:00:22;3.72;;;2.10;;
41643;SDS011;44236;48.098;11.582;2023-04-03T01:02:49;3.38;;;1.80;;
41643;SDS011;44236;48.098;11.582;2023-04-03T01:05:16;3.97;;;2.30;;
41643;SDS011;44236;48.098;11.582;2023-04-03T01:07:42;5.78;;;2.13;;
41643;SDS011;44236;48.098;11.582;2023-04-03T01:10:10;2.75;;;1.92;;
41643;SDS011;44236;48.098;11.582;2023-04-03T01:12:39;3.35;;;2.05;;
41643;SDS011;44236;48.098;11.582;2023-04-03T01:15:08;3.83;;;2.10;;
41643;SDS011;44236;48.098;11.582;2023-04-03T01:17:46;3.25;;;2.10;;
41643;SDS011;44236;48.098;11.582;2023-04-03T01:25:37;3.92;;;2.13;;
41643;SDS011;44236;48.098;11.582;2023-04-03T01:28:15;3.22;;;1.90;;
41643;SDS011;44236;48.098;11.582;2023-04-03T01:30:45;2.95;;;1.65;;
41643;SDS011;44236;48.098;11.582;2023-04-03T01:33:32;2.92;;;1.90;;
41643;SDS011;44236;48.098;11.582;2023-04-03T01:35:58;2.10;;;1.50;;
41643;SDS011;44236;48.098;11.582;2023-04-03T01:38:24;2.85;;;1.85;;
41643;SDS011;44236;48.098;11.582;2023-04-03T01:40:50;3.00;;;2.00;;
41643;SDS011;44236;48.098;11.582;2023-04-03T01:43:15;3.35;;;1.65;;
41643;SDS011;44236;48.098;11.582;2023-04-03T01:45:41;2.85;;;2.00;;
41643;SDS011;44236;48.098;11.582;2023-04-03T01:48:07;3.05;;;1.67;;
41643;SDS011;44236;48.098;11.582;2023-04-03T01:50:32;4.10;;;1.90;;
41643;SDS011;44236;48.098;11.582;2023-04-03T01:52:59;6.35;;;2.00;;
41643;SDS011;44236;48.098;11.582;2023-04-03T01:55:24;4.15;;;1.95;;
41643;SDS011;44236;48.098;11.582;2023-04-03T01:57:50;2.83;;;1.83;;
41643;SDS011;44236;48.098;11.582;2023-04-03T02:00:16;3.00;;;1.80;;
41643;SDS011;44236;48.098;11.582;2023-04-03T02:02:41;3.13;;;1.92;;
41643;SDS011;44236;48.098;11.582;2023-04-03T02:05:10;3.15;;;2.10;;
41643;SDS011;44236;48.098;11.582;2023-04-03T02:07:36;3.03;;;1.83;;
41643;SDS011;44236;48.098;11.582;2023-04-03T02:10:02;3.05;;;1.60;;
41643;SDS011;44236;48.098;11.582;2023-04-03T02:12:27;3.20;;;2.00;;
41643;SDS011;44236;48.098;11.582;2023-04-03T02:14:53;2.72;;;1.48;;
41643;SDS011;44236;48.098;11.582;2023-04-03T02:17:19;3.72;;;1.77;;
41643;SDS011;44236;48.098;11.582;2023-04-03T02:19:45;2.63;;;1.60;;
41643;SDS011;44236;48.098;11.582;2023-04-03T02:22:10;3.03;;;1.83;;
41643;SDS011;44236;48.098;11.582;2023-04-03T02:24:36;1.92;;;1.40;;
41643;SDS011;44236;48.098;11.582;2023-04-03T02:27:04;2.95;;;1.80;;
41643;SDS011;44236;48.098;11.582;2023-04-03T02:29:29;3.30;;;2.00;;
41643;SDS011;44236;48.098;11.582;2023-04-03T02:31:55;2.85;;;1.92;;
41643;SDS011;44236;48.098;11.582;2023-04-03T02:34:21;2.45;;;1.63;;
41643;SDS011;44236;48.098;11.582;2023-04-03T02:36:46;3.38;;;2.30;;
41643;SDS011;44236;48.098;11.582;2023-04-03T02:39:12;3.20;;;1.73;;
41643;SDS011;44236;48.098;11.582;2023-04-03T02:41:38;4.10;;;2.15;;
41643;SDS011;44236;48.098;11.582;2023-04-03T02:44:04;3.22;;;2.15;;
41643;SDS011;44236;48.098;11.582;2023-04-03T02:46:31;2.83;;;1.75;;
41643;SDS011;44236;48.098;11.582;2023-04-03T02:48:58;3.30;;;2.17;;
41643;SDS011;44236;48.098;11.582;2023-04-03T02:51:23;2.55;;;1.65;;
41643;SDS011;44236;48.098;11.582;2023-04-03T02:53:50;3.05;;;1.50;;
41643;SDS011;44236;48.098;11.582;2023-04-03T02:56:15;2.78;;;1.85;;
41643;SDS011;44236;48.098;11.582;2023-04-03T02:58:43;2.55;;;1.75;;
41643;SDS011;44236;48.098;11.582;2023-04-03T03:01:09;3.00;;;1.77;;
41643;SDS011;44236;48.098;11.582;2023-04-03T03:03:35;2.83;;;1.65;;
41643;SDS011;44236;48.098;11.582;2023-04-03T03:06:01;3.50;;;1.90;;
41643;SDS011;44236;48.098;11.582;2023-04-03T03:08:27;3.55;;;1.70;;
41643;SDS011;44236;48.098;11.582;2023-04-03T03:10:53;2.80;;;1.63;;
41643;SDS011;44236;48.098;11.582;2023-04-03T03:13:18;1.65;;;1.30;;
41643;SDS011;44236;48.098;11.582;2023-04-03T03:15:44;2.53;;;1.67;;
41643;SDS011;44236;48.098;11.582;2023-04-03T03:18:10;4.40;;;1.70;;
41643;SDS011;44236;48.098;11.582;2023-04-03T03:20:35;3.15;;;1.98;;
41643;SDS011;44236;48.098;11.582;2023-04-03T03:23:01;2.83;;;1.80;;
41643;SDS011;44236;48.098;11.582;2023-04-03T03:25:26;3.33;;;1.80;;
41643;SDS011;44236;48.098;11.582;2023-04-03T03:27:52;2.67;;;1.65;;
41643;SDS011;44236;48.098;11.582;2023-04-03T03:30:18;3.60;;;2.00;;
41643;SDS011;44236;48.098;11.582;2023-04-03T03:32:43;2.72;;;1.70;;
41643;SDS011;44236;48.098;11.582;2023-04-03T03:35:09;2.88;;;1.40;;
41643;SDS011;44236;48.098;11.582;2023-04-03T03:37:35;2.55;;;1.42;;
41643;SDS011;44236;48.098;11.582;2023-04-03T03:40:01;3.05;;;1.85;;
41643;SDS011;44236;48.098;11.582;2023-04-03T03:42:26;2.50;;;1.48;;
41643;SDS011;44236;48.098;11.582;2023-04-03T03:44:52;2.95;;;1.70;;
41643;SDS011;44236;48.098;11.582;2023-04-03T03:47:18;3.42;;;1.90;;
41643;SDS011;44236;48.098;11.582;2023-04-03T03:49:43;3.72;;;1.90;;
41643;SDS011;44236;48.098;11.582;2023-04-03T03:52:09;2.22;;;1.42;;
41643;SDS011;44236;48.098;11.582;2023-04-03T03:54:37;2.65;;;1.67;;
41643;SDS011;44236;48.098;11.582;2023-04-03T03:57:03;3.22;;;1.88;;
41643;SDS011;44236;48.098;11.582;2023-04-03T03:59:29;2.55;;;1.55;;
41643;SDS011;44236;48.098;11.582;2023-04-03T04:01:55;2.92;;;1.60;;
41643;SDS011;44236;48.098;11.582;2023-04-03T04:04:21;2.30;;;1.58;;
41643;SDS011;44236;48.098;11.582;2023-04-03T04:06:46;2.15;;;1.38;;
41643;SDS011;44236;48.098;11.582;2023-04-03T04:09:12;1.92;;;1.48;;
41643;SDS011;44236;48.098;11.582;2023-04-03T04:11:38;1.80;;;1.20;;
41643;SDS011;44236;48.098;11.582;2023-04-03T04:14:05;2.22;;;1.55;;
41643;SDS011;44236;48.098;11.582;2023-04-03T04:16:31;2.50;;;1.42;;
41643;SDS011;44236;48.098;11.582;2023-04-03T04:18:57;2.60;;;1.60;;
41643;SDS011;44236;48.098;11.582;2023-04-03T04:21:23;2.67;;;1.65;;
41643;SDS011;44236;48.098;11.582;2023-04-03T04:23:48;2.97;;;1.60;;
41643;SDS011;44236;48.098;11.582;2023-04-03T04:26:14;2.72;;;1.70;;
41643;SDS011;44236;48.098;11.582;2023-04-03T04:28:39;2.90;;;1.80;;
41643;SDS011;44236;48.098;11.582;2023-04-03T04:31:05;2.33;;;1.42;;
41643;SDS011;44236;48.098;11.582;2023-04-03T04:33:31;2.50;;;1.70;;
41643;SDS011;44236;48.098;11.582;2023-04-03T04:35:56;2.33;;;1.38;;
41643;SDS011;44236;48.098;11.582;2023-04-03T04:38:22;2.25;;;1.45;;
41643;SDS011;44236;48.098;11.582;2023-04-03T04:40:48;2.40;;;1.55;;
41643;SDS011;44236;48.098;11.582;2023-04-03T04:43:13;2.35;;;1.45;;
41643;SDS011;44236;48.098;11.582;2023-04-03T04:45:40;2.28;;;1.35;;
41643;SDS011;44236;48.098;11.582;2023-04-03T04:48:06;1.80;;;1.20;;
41643;SDS011;44236;48.098;11.582;2023-04-03T04:50:32;2.55;;;1.50;;
41643;SDS011;44236;48.098;11.582;2023-04-03T04:53:01;2.47;;;1.38;;
41643;SDS011;44236;48.098;11.582;2023-04-03T04:55:26;2.20;;;1.58;;
41643;SDS011;44236;48.098;11.582;2023-04-03T04:57:52;3.40;;;1.10;;
41643;SDS011;44236;48.098;11.582;2023-04-03T05:00:17;2.78;;;1.40;;
41643;SDS011;44236;48.098;11.582;2023-04-03T05:02:43;2.13;;;1.48;;
41643;SDS011;44236;48.098;11.582;2023-04-03T05:05:12;1.77;;;1.20;;
41643;SDS011;44236;48.098;11.582;2023-04-03T05:07:37;2.17;;;1.10;;
41643;SDS011;44236;48.098;11.582;2023-04-03T05:10:03;2.10;;;1.33;;
41643;SDS011;44236;48.098;11.582;2023-04-03T05:12:29;4.00;;;1.45;;
41643;SDS011;44236;48.098;11.582;2023-04-03T05:14:55;2.88;;;1.42;;
41643;SDS011;44236;48.098;11.582;2023-04-03T05:17:20;2.10;;;1.30;;
41643;SDS011;44236;48.098;11.582;2023-04-03T05:19:46;2.83;;;1.48;;
41643;SDS011;44236;48.098;11.582;2023-04-03T05:22:11;1.65;;;1.08;;
41643;SDS011;44236;48.098;11.582;2023-04-03T05:24:37;3.28;;;1.52;;
41643;SDS011;44236;48.098;11.582;2023-04-03T05:27:03;9.68;;;1.80;;
41643;SDS011;44236;48.098;11.582;2023-04-03T05:29:29;4.13;;;2.10;;
41643;SDS011;44236;48.098;11.582;2023-04-03T05:31:55;4.80;;;2.42;;
41643;SDS011;44236;48.098;11.582;2023-04-03T05:34:20;5.53;;;1.65;;
41643;SDS011;44236;48.098;11.582;2023-04-03T05:36:46;3.05;;;1.42;;
41643;SDS011;44236;48.098;11.582;2023-04-03T05:39:11;2.47;;;1.48;;
41643;SDS011;44236;48.098;11.582;2023-04-03T05:41:37;2.40;;;1.23;;
41643;SDS011;44236;48.098;11.582;2023-04-03T05:44:03;3.72;;;1.20;;
41643;SDS011;44236;48.098;11.582;2023-04-03T05:46:28;7.38;;;2.30;;
41643;SDS011;44236;48.098;11.582;2023-04-03T05:48:54;1.50;;;0.90;;
41643;SDS011;44236;48.098;11.582;2023-04-03T05:51:24;3.72;;;1.55;;
41643;SDS011;44236;48.098;11.582;2023-04-03T05:54:11;2.15;;;1.27;;
41643;SDS011;44236;48.098;11.582;2023-04-03T05:56:41;2.55;;;1.10;;
41643;SDS011;44236;48.098;11.582;2023-04-03T05:59:06;2.92;;;1.70;;
41643;SDS011;44236;48.098;11.582;2023-04-03T06:01:32;2.45;;;1.13;;
41643;SDS011;44236;48.098;11.582;2023-04-03T06:03:59;3.67;;;1.13;;
41643;SDS011;44236;48.098;11.582;2023-04-03T06:06:24;2.70;;;1.20;;
41643;SDS011;44236;48.098;11.582;2023-04-03T06:08:50;2.70;;;1.13;;
41643;SDS011;44236;48.098;11.582;2023-04-03T06:11:16;1.98;;;1.20;;
41643;SDS011;44236;48.098;11.582;2023-04-03T06:13:42;2.67;;;1.27;;
41643;SDS011;44236;48.098;11.582;2023-04-03T06:16:09;3.60;;;1.38;;
41643;SDS011;44236;48.098;11.582;2023-04-03T06:18:40;2.90;;;1.35;;
41643;SDS011;44236;48.098;11.582;2023-04-03T06:21:06;3.42;;;1.20;;
41643;SDS011;44236;48.098;11.582;2023-04-03T06:23:32;2.88;;;1.10;;
41643;SDS011;44236;48.098;11.582;2023-04-03T06:25:58;3.33;;;1.35;;
41643;SDS011;44236;48.098;11.582;2023-04-03T06:28:25;14.27;;;1.40;;
41643;SDS011;44236;48.098;11.582;2023-04-03T06:30:51;6.45;;;1.25;;
41643;SDS011;44236;48.098;11.582;2023-04-03T06:33:16;1.95;;;1.00;;
41643;SDS011;44236;48.098;11.582;2023-04-03T06:35:42;9.23;;;1.70;;
41643;SDS011;44236;48.098;11.582;2023-04-03T06:38:07;4.30;;;1.48;;
41643;SDS011;44236;48.098;11.582;2023-04-03T06:40:34;3.30;;;1.27;;
41643;SDS011;44236;48.098;11.582;2023-04-03T06:43:00;2.28;;;1.00;;
41643;SDS011;44236;48.098;11.582;2023-04-03T06:45:26;4.38;;;1.33;;
41643;SDS011;44236;48.098;11.582;2023-04-03T06:47:52;2.60;;;1.20;;
41643;SDS011;44236;48.098;11.582;2023-04-03T06:50:18;3.72;;;1.00;;
41643;SDS011;44236;48.098;11.582;2023-04-03T06:52:44;4.55;;;1.05;;
41643;SDS011;44236;48.098;11.582;2023-04-03T06:55:10;4.20;;;1.10;;
41643;SDS011;44236;48.098;11.582;2023-04-03T06:57:36;1.88;;;0.98;;
41643;SDS011;44236;48.098;11.582;2023-04-03T07:00:03;5.72;;;1.35;;
41643;SDS011;44236;48.098;11.582;2023-04-03T07:02:29;5.10;;;1.23;;
41643;SDS011;44236;48.098;11.582;2023-04-03T07:04:55;3.17;;;1.20;;
41643;SDS011;44236;48.098;11.582;2023-04-03T07:07:21;5.47;;;1.90;;
41643;SDS011;44236;48.098;11.582;2023-04-03T07:09:47;2.63;;;1.02;;
41643;SDS011;44236;48.098;11.582;2023-04-03T07:12:13;2.13;;;1.10;;
41643;SDS011;44236;48.098;11.582;2023-04-03T07:14:39;3.83;;;1.63;;
41643;SDS011;44236;48.098;11.582;2023-04-03T07:17:04;5.00;;;1.27;;
41643;SDS011;44236;48.098;11.582;2023-04-03T07:19:30;2.10;;;1.15;;
41643;SDS011;44236;48.098;11.582;2023-04-03T07:21:56;2.50;;;1.00;;
41643;SDS011;44236;48.098;11.582;2023-04-03T07:24:22;3.83;;;1.02;;
41643;SDS011;44236;48.098;11.582;2023-04-03T07:26:51;3.58;;;1.05;;
41643;SDS011;44236;48.098;11.582;2023-04-03T07:29:17;2.17;;;1.15;;
41643;SDS011;44236;48.098;11.582;2023-04-03T07:31:43;2.45;;;1.08;;
41643;SDS011;44236;48.098;11.582;2023-04-03T07:34:09;4.70;;;1.60;;
41643;SDS011;44236;48.098;11.582;2023-04-03T07:36:36;2.17;;;1.20;;
41643;SDS011;44236;48.098;11.582;2023-04-03T07:39:02;12.48;;;1.45;;
41643;SDS011;44236;48.098;11.582;2023-04-03T07:41:28;3.45;;;1.23;;
41643;SDS011;44236;48.098;11.582;2023-04-03T07:43:55;2.22;;;1.08;;
41643;SDS011;44236;48.098;11.582;2023-04-03T07:46:21;2.92;;;1.15;;
41643;SDS011;44236;48.098;11.582;2023-04-03T07:48:47;4.05;;;1.90;;
41643;SDS011;44236;48.098;11.582;2023-04-03T07:51:13;2.70;;;1.13;;
41643;SDS011;44236;48.098;11.582;2023-04-03T07:53:39;4.45;;;1.30;;
41643;SDS011;44236;48.098;11.582;2023-04-03T07:56:06;4.20;;;1.15;;
41643;SDS011;44236;48.098;11.582;2023-04-03T07:58:32;4.28;;;1.23;;
41643;SDS011;44236;48.098;11.582;2023-04-03T08:00:58;3.85;;;1.08;;
41643;SDS011;44236;48.098;11.582;2023-04-03T08:03:24;5.57;;;1.45;;
41643;SDS011;44236;48.098;11.582;2023-04-03T08:05:50;3.70;;;1.88;;
41643;SDS011;44236;48.098;11.582;2023-04-03T08:08:18;4.90;;;1.70;;
41643;SDS011;44236;48.098;11.582;2023-04-03T08:10:47;6.78;;;1.85;;
41643;SDS011;44236;48.098;11.582;2023-04-03T08:15:43;3.83;;;1.30;;
41643;SDS011;44236;48.098;11.582;2023-04-03T08:18:08;7.65;;;1.75;;
41643;SDS011;44236;48.098;11.582;2023-04-03T08:20:34;5.65;;;1.50;;
41643;SDS011;44236;48.098;11.582;2023-04-03T08:23:00;4.70;;;1.73;;
41643;SDS011;44236;48.098;11.582;2023-04-03T08:25:25;4.13;;;1.23;;
41643;SDS011;44236;48.098;11.582;2023-04-03T08:27:51;5.90;;;2.72;;
41643;SDS011;44236;48.098;11.582;2023-04-03T08:30:17;3.85;;;1.60;;
41643;SDS011;44236;48.098;11.582;2023-04-03T08:32:42;6.50;;;2.33;;
41643;SDS011;44236;48.098;11.582;2023-04-03T08:35:09;6.88;;;2.03;;
41643;SDS011;44236;48.098;11.582;2023-04-03T08:37:35;3.30;;;1.63;;
41643;SDS011;44236;48.098;11.582;2023-04-03T08:40:05;5.57;;;1.60;;
41643;SDS011;44236;48.098;11.582;2023-04-03T08:42:54;8.27;;;2.00;;
41643;SDS011;44236;48.098;11.582;2023-04-03T08:45:45;9.52;;;2.38;;
41643;SDS011;44236;48.098;11.582;2023-04-03T08:48:17;4.82;;;1.58;;
41643;SDS011;44236;48.098;11.582;2023-04-03T08:50:47;4.93;;;2.10;;
41643;SDS011;44236;48.098;11.582;2023-04-03T08:53:26;3.95;;;1.55;;
41643;SDS011;44236;48.098;11.582;2023-04-03T08:55:57;8.00;;;1.85;;
41643;SDS011;44236;48.098;11.582;2023-04-03T08:58:26;3.30;;;1.42;;
41643;SDS011;44236;48.098;11.582;2023-04-03T09:00:58;3.85;;;1.75;;
41643;SDS011;44236;48.098;11.582;2023-04-03T09:03:24;2.97;;;1.40;;
41643;SDS011;44236;48.098;11.582;2023-04-03T09:08:53;5.18;;;1.92;;
41643;SDS011;44236;48.098;11.582;2023-04-03T09:11:36;4.13;;;1.48;;
41643;SDS011;44236;48.098;11.582;2023-04-03T09:16:56;5.20;;;2.55;;
41643;SDS011;44236;48.098;11.582;2023-04-03T09:22:23;7.72;;;1.50;;
41643;SDS011;44236;48.098;11.582;2023-04-03T09:24:55;7.18;;;1.58;;
41643;SDS011;44236;48.098;11.582;2023-04-03T09:27:30;3.85;;;1.67;;
41643;SDS011;44236;48.098;11.582;2023-04-03T09:29:56;3.55;;;1.52;;
41643;SDS011;44236;48.098;11.582;2023-04-03T09:34:56;3.55;;;1.58;;
41643;SDS011;44236;48.098;11.582;2023-04-03T09:37:37;4.50;;;1.80;;
41643;SDS011;44236;48.098;11.582;2023-04-03T09:42:52;3.30;;;1.60;;
41643;SDS011;44236;48.098;11.582;2023-04-03T09:45:26;3.20;;;1.67;;
41643;SDS011;44236;48.098;11.582;2023-04-03T09:48:05;3.47;;;1.42;;
41643;SDS011;44236;48.098;11.582;2023-04-03T09:50:56;4.45;;;1.38;;
41643;SDS011;44236;48.098;11.582;2023-04-03T09:56:25;3.97;;;1.45;;
41643;SDS011;44236;48.098;11.582;2023-04-03T10:01:31;3.22;;;1.17;;
41643;SDS011;44236;48.098;11.582;2023-04-03T10:06:42;3.00;;;1.20;;
41643;SDS011;44236;48.098;11.582;2023-04-03T10:14:24;3.03;;;1.48;;
41643;SDS011;44236;48.098;11.582;2023-04-03T10:22:37;2.30;;;1.17;;
41643;SDS011;44236;48.098;11.582;2023-04-03T10:41:47;3.80;;;1.70;;
41643;SDS011;44236;48.098;11.582;2023-04-03T10:52:37;4.50;;;1.15;;
41643;SDS011;44236;48.098;11.582;2023-04-03T10:55:01;2.05;;;0.82;;
41643;SDS011;44236;48.098;11.582;2023-04-03T10:57:47;4.07;;;1.30;;
41643;SDS011;44236;48.098;11.582;2023-04-03T11:00:26;6.07;;;1.40;;
41643;SDS011;44236;48.098;11.582;2023-04-03T11:03:15;3.17;;;1.30;;
41643;SDS011;44236;48.098;11.582;2023-04-03T11:05:52;3.53;;;1.20;;
41643;SDS011;44236;48.098;11.582;2023-04-03T11:08:27;2.55;;;1.30;;
41643;SDS011;44236;48.098;11.582;2023-04-03T11:11:08;4.53;;;1.38;;
41643;SDS011;44236;48.098;11.582;2023-04-03T11:13:46;3.03;;;1.67;;
41643;SDS011;44236;48.098;11.582;2023-04-03T11:16:30;4.07;;;1.83;;
41643;SDS011;44236;48.098;11.582;2023-04-03T11:24:39;3.75;;;1.50;;
41643;SDS011;44236;48.098;11.582;2023-04-03T11:27:09;2.95;;;1.38;;
41643;SDS011;44236;48.098;11.582;2023-04-03T11:29:43;3.22;;;1.38;;
41643;SDS011;44236;48.098;11.582;2023-04-03T11:32:27;3.00;;;1.40;;
41643;SDS011;44236;48.098;11.582;2023-04-03T11:35:17;2.95;;;1.30;;
41643;SDS011;44236;48.098;11.582;2023-04-03T11:37:45;2.83;;;1.38;;
41643;SDS011;44236;48.098;11.582;2023-04-03T11:42:46;2.22;;;1.05;;
41643;SDS011;44236;48.098;11.582;2023-04-03T11:52:58;3.40;;;1.33;;
41643;SDS011;44236;48.098;11.582;2023-04-03T11:58:19;1.75;;;1.17;;
41643;SDS011;44236;48.098;11.582;2023-04-03T12:01:00;4.28;;;1.13;;
41643;SDS011;44236;48.098;11.582;2023-04-03T12:03:30;4.55;;;1.70;;
41643;SDS011;44236;48.098;11.582;2023-04-03T12:21:21;2.45;;;1.23;;
41643;SDS011;44236;48.098;11.582;2023-04-03T12:37:27;3.97;;;1.50;;
41643;SDS011;44236;48.098;11.582;2023-04-03T12:45:21;4.57;;;1.27;;
41643;SDS011;44236;48.098;11.582;2023-04-03T12:47:55;7.97;;;1.70;;
41643;SDS011;44236;48.098;11.582;2023-04-03T12:50:24;3.65;;;1.38;;
41643;SDS011;44236;48.098;11.582;2023-04-03T12:53:15;6.60;;;1.55;;
41643;SDS011;44236;48.098;11.582;2023-04-03T12:55:47;6.07;;;2.13;;
41643;SDS011;44236;48.098;11.582;2023-04-03T12:58:25;6.07;;;1.50;;
41643;SDS011;44236;48.098;11.582;2023-04-03T13:00:59;2.58;;;1.25;;
41643;SDS011;44236;48.098;11.582;2023-04-03T13:03:34;4.87;;;1.70;;
41643;SDS011;44236;48.098;11.582;2023-04-03T13:06:02;4.28;;;1.52;;
41643;SDS011;44236;48.098;11.582;2023-04-03T13:08:29;3.30;;;1.30;;
41643;SDS011;44236;48.098;11.582;2023-04-03T13:13:21;4.22;;;1.20;;
41643;SDS011;44236;48.098;11.582;2023-04-03T13:15:48;2.92;;;1.30;;
41643;SDS011;44236;48.098;11.582;2023-04-03T13:18:22;5.38;;;1.50;;
41643;SDS011;44236;48.098;11.582;2023-04-03T13:20:52;2.78;;;1.63;;
41643;SDS011;44236;48.098;11.582;2023-04-03T13:23:22;3.60;;;1.70;;
41643;SDS011;44236;48.098;11.582;2023-04-03T13:25:48;9.40;;;1.60;;
41643;SDS011;44236;48.098;11.582;2023-04-03T13:28:18;2.50;;;1.60;;
41643;SDS011;44236;48.098;11.582;2023-04-03T13:33:35;3.95;;;1.23;;
41643;SDS011;44236;48.098;11.582;2023-04-03T13:36:06;3.13;;;1.30;;
41643;SDS011;44236;48.098;11.582;2023-04-03T13:38:41;2.75;;;1.48;;
41643;SDS011;44236;48.098;11.582;2023-04-03T13:41:24;2.22;;;1.15;;
41643;SDS011;44236;48.098;11.582;2023-04-03T13:44:15;6.00;;;1.40;;
41643;SDS011;44236;48.098;11.582;2023-04-03T13:49:21;2.72;;;1.17;;
41643;SDS011;44236;48.098;11.582;2023-04-03T13:51:50;3.55;;;1.58;;
41643;SDS011;44236;48.098;11.582;2023-04-03T13:54:22;3.05;;;1.30;;
41643;SDS011;44236;48.098;11.582;2023-04-03T13:57:15;2.90;;;1.50;;
41643;SDS011;44236;48.098;11.582;2023-04-03T13:59:41;3.28;;;1.38;;
41643;SDS011;44236;48.098;11.582;2023-04-03T14:07:02;2.50;;;1.10;;
41643;SDS011;44236;48.098;11.582;2023-04-03T14:09:28;2.95;;;1.10;;
41643;SDS011;44236;48.098;11.582;2023-04-03T14:12:02;4.65;;;1.35;;
41643;SDS011;44236;48.098;11.582;2023-04-03T14:14:38;3.08;;;1.67;;
41643;SDS011;44236;48.098;11.582;2023-04-03T14:17:13;5.10;;;1.70;;
41643;SDS011;44236;48.098;11.582;2023-04-03T14:19:43;3.90;;;1.58;;
41643;SDS011;44236;48.098;11.582;2023-04-03T14:22:14;4.03;;;1.15;;
41643;SDS011;44236;48.098;11.582;2023-04-03T14:24:51;2.42;;;0.85;;
41643;SDS011;44236;48.098;11.582;2023-04-03T14:29:52;1.90;;;1.13;;
41643;SDS011;44236;48.098;11.582;2023-04-03T14:32:21;4.72;;;0.95;;
41643;SDS011;44236;48.098;11.582;2023-04-03T14:34:48;2.38;;;1.33;;
41643;SDS011;44236;48.098;11.582;2023-04-03T14:37:18;3.78;;;1.20;;
41643;SDS011;44236;48.098;11.582;2023-04-03T14:39:49;1.90;;;1.02;;
41643;SDS011;44236;48.098;11.582;2023-04-03T14:42:17;3.85;;;1.52;;
41643;SDS011;44236;48.098;11.582;2023-04-03T14:44:47;4.47;;;1.27;;
41643;SDS011;44236;48.098;11.582;2023-04-03T14:47:15;7.88;;;1.83;;
41643;SDS011;44236;48.098;11.582;2023-04-03T14:49:43;2.72;;;1.00;;
41643;SDS011;44236;48.098;11.582;2023-04-03T14:52:30;2.95;;;1.38;;
41643;SDS011;44236;48.098;11.582;2023-04-03T14:54:57;1.70;;;1.00;;
41643;SDS011;44236;48.098;11.582;2023-04-03T14:57:23;2.03;;;0.80;;
41643;SDS011;44236;48.098;11.582;2023-04-03T14:59:50;3.20;;;1.23;;
41643;SDS011;44236;48.098;11.582;2023-04-03T15:05:02;2.22;;;0.98;;
41643;SDS011;44236;48.098;11.582;2023-04-03T15:07:30;2.22;;;1.00;;
41643;SDS011;44236;48.098;11.582;2023-04-03T15:10:22;2.80;;;1.25;;
41643;SDS011;44236;48.098;11.582;2023-04-03T15:12:48;2.33;;;0.90;;
41643;SDS011;44236;48.098;11.582;2023-04-03T15:15:15;3.20;;;1.05;;
41643;SDS011;44236;48.098;11.582;2023-04-03T15:17:44;1.58;;;0.90;;
41643;SDS011;44236;48.098;11.582;2023-04-03T15:20:20;1.70;;;0.95;;
41643;SDS011;44236;48.098;11.582;2023-04-03T15:22:47;6.20;;;1.58;;
41643;SDS011;44236;48.098;11.582;2023-04-03T15:25:13;3.80;;;1.33;;
41643;SDS011;44236;48.098;11.582;2023-04-03T15:27:39;5.40;;;1.67;;
41643;SDS011;44236;48.098;11.582;2023-04-03T15:30:06;5.35;;;1.10;;
41643;SDS011;44236;48.098;11.582;2023-04-03T15:32:33;4.72;;;1.48;;
41643;SDS011;44236;48.098;11.582;2023-04-03T15:35:00;1.85;;;1.17;;
41643;SDS011;44236;48.098;11.582;2023-04-03T15:37:26;4.18;;;1.10;;
41643;SDS011;44236;48.098;11.582;2023-04-03T15:39:51;2.15;;;1.13;;
41643;SDS011;44236;48.098;11.582;2023-04-03T15:42:17;3.22;;;1.20;;
41643;SDS011;44236;48.098;11.582;2023-04-03T15:44:43;3.65;;;0.85;;
41643;SDS011;44236;48.098;11.582;2023-04-03T15:47:08;4.18;;;1.08;;
41643;SDS011;44236;48.098;11.582;2023-04-03T15:49:34;5.75;;;1.40;;
41643;SDS011;44236;48.098;11.582;2023-04-03T15:52:01;4.18;;;1.00;;
41643;SDS011;44236;48.098;11.582;2023-04-03T15:54:30;2.65;;;1.15;;
41643;SDS011;44236;48.098;11.582;2023-04-03T15:56:56;2.00;;;0.80;;
41643;SDS011;44236;48.098;11.582;2023-04-03T15:59:22;7.07;;;1.60;;
41643;SDS011;44236;48.098;11.582;2023-04-03T16:01:48;3.75;;;1.55;;
41643;SDS011;44236;48.098;11.582;2023-04-03T16:04:15;7.82;;;1.40;;
41643;SDS011;44236;48.098;11.582;2023-04-03T16:06:42;2.88;;;1.05;;
41643;SDS011;44236;48.098;11.582;2023-04-03T16:09:07;3.13;;;1.20;;
41643;SDS011;44236;48.098;11.582;2023-04-03T16:11:33;9.25;;;2.90;;
41643;SDS011;44236;48.098;11.582;2023-04-03T16:14:00;11.60;;;2.20;;
41643;SDS011;44236;48.098;11.582;2023-04-03T16:16:26;8.77;;;1.83;;
41643;SDS011;44236;48.098;11.582;2023-04-03T16:18:53;6.13;;;1.90;;
41643;SDS011;44236;48.098;11.582;2023-04-03T16:21:20;9.88;;;2.10;;
41643;SDS011;44236;48.098;11.582;2023-04-03T16:23:47;6.75;;;2.33;;
41643;SDS011;44236;48.098;11.582;2023-04-03T16:26:12;8.73;;;2.65;;
41643;SDS011;44236;48.098;11.582;2023-04-03T16:28:38;12.02;;;2.47;;
41643;SDS011;44236;48.098;11.582;2023-04-03T16:31:05;5.97;;;2.30;;
41643;SDS011;44236;48.098;11.582;2023-04-03T16:33:31;9.57;;;2.15;;
41643;SDS011;44236;48.098;11.582;2023-04-03T16:35:57;10.80;;;2.55;;
41643;SDS011;44236;48.098;11.582;2023-04-03T16:38:22;9.82;;;2.28;;
41643;SDS011;44236;48.098;11.582;2023-04-03T16:40:48;8.80;;;2.45;;
41643;SDS011;44236;48.098;11.582;2023-04-03T16:43:14;8.15;;;2.70;;
41643;SDS011;44236;48.098;11.582;2023-04-03T16:45:41;6.53;;;2.28;;
41643;SDS011;44236;48.098;11.582;2023-04-03T16:48:07;6.80;;;1.88;;
41643;SDS011;44236;48.098;11.582;2023-04-03T16:50:33;8.63;;;3.00;;
41643;SDS011;44236;48.098;11.582;2023-04-03T16:52:58;9.85;;;2.45;;
41643;SDS011;44236;48.098;11.582;2023-04-03T16:55:24;7.68;;;2.50;;
41643;SDS011;44236;48.098;11.582;2023-04-03T16:57:50;8.02;;;2.50;;
41643;SDS011;44236;48.098;11.582;2023-04-03T17:00:16;5.90;;;2.05;;